WAT590 KMIA-KASE
Flight info
| Callsign | WAT590 |
|---|---|
| Flight time | N/A |
| Altitude | 32000 |
| Route | HURCN4 SMELZ Q116 JAWJA CABLO ICT GCK MMUTT HAREI1 |
| Aircraft | B738/M-SDE2E3FGHIRWXY/LB1 |
Departure
| Time | 2026-04-30 22:19 |
|---|---|
| Airport | Miami International Airport (KMIA) |
Arrival
| Time | N/A |
|---|---|
| Airport | Aspen-Pitkin County Airport (Sardy Field) (KASE) |
| Time | Latitude | Longitude | Altitude | Speed | Heading |
|---|---|---|---|---|---|
| 2026-04-30 21:36 | 25.80603 | -80.29147 | 17 ft | 7 kts | 346° |
| 2026-04-30 21:37 | 25.80686 | -80.29168 | 17 ft | 0 kts | 350° |
| 2026-04-30 22:08 | 25.80687 | -80.29169 | 27 ft | 1 kts | 341° |
| 2026-04-30 22:09 | 25.80686 | -80.29177 | 17 ft | 1 kts | 247° |
| 2026-04-30 22:09 | 25.80668 | -80.29177 | 19 ft | 4 kts | 175° |
| 2026-04-30 22:09 | 25.80644 | -80.29169 | 17 ft | 4 kts | 152° |
| 2026-04-30 22:09 | 25.80624 | -80.29153 | 17 ft | 4 kts | 143° |
| 2026-04-30 22:10 | 25.80604 | -80.29139 | 17 ft | 3 kts | 157° |
| 2026-04-30 22:10 | 25.80580 | -80.29135 | 17 ft | 4 kts | 176° |
| 2026-04-30 22:10 | 25.80538 | -80.29133 | 18 ft | 8 kts | 177° |
| 2026-04-30 22:10 | 25.80503 | -80.29131 | 18 ft | 0 kts | 177° |
| 2026-04-30 22:11 | 25.80447 | -80.29149 | 20 ft | 9 kts | 235° |
| 2026-04-30 22:11 | 25.80440 | -80.29230 | 21 ft | 13 kts | 272° |
| 2026-04-30 22:11 | 25.80444 | -80.29341 | 20 ft | 16 kts | 266° |
| 2026-04-30 22:12 | 25.80429 | -80.29471 | 19 ft | 17 kts | 267° |
| 2026-04-30 22:12 | 25.80428 | -80.29499 | 19 ft | 0 kts | 266° |
| 2026-04-30 22:13 | 25.80427 | -80.29512 | 20 ft | 6 kts | 266° |
| 2026-04-30 22:13 | 25.80423 | -80.29590 | 21 ft | 14 kts | 267° |
| 2026-04-30 22:14 | 25.80418 | -80.29711 | 23 ft | 17 kts | 267° |
| 2026-04-30 22:14 | 25.80413 | -80.29829 | 22 ft | 1 kts | 266° |
| 2026-04-30 22:14 | 25.80412 | -80.29842 | 21 ft | 2 kts | 266° |
| 2026-04-30 22:14 | 25.80411 | -80.29858 | 21 ft | 2 kts | 266° |
| 2026-04-30 22:15 | 25.80410 | -80.29875 | 21 ft | 2 kts | 266° |
| 2026-04-30 22:15 | 25.80409 | -80.29897 | 22 ft | 4 kts | 265° |
| 2026-04-30 22:15 | 25.80404 | -80.29960 | 20 ft | 12 kts | 265° |
| 2026-04-30 22:15 | 25.80397 | -80.30066 | 20 ft | 15 kts | 266° |
| 2026-04-30 22:16 | 25.80343 | -80.30145 | 20 ft | 14 kts | 182° |
| 2026-04-30 22:16 | 25.80246 | -80.30140 | 18 ft | 14 kts | 178° |
| 2026-04-30 22:17 | 25.80167 | -80.30137 | 17 ft | 3 kts | 178° |
| 2026-04-30 22:17 | 25.80123 | -80.30134 | 18 ft | 10 kts | 175° |
| 2026-04-30 22:17 | 25.80083 | -80.29838 | 16 ft | 60 kts | 87° |
| 2026-04-30 22:18 | 25.80113 | -80.29135 | 25 ft | 121 kts | 87° |
| 2026-04-30 22:18 | 25.80252 | -80.26629 | 463 ft | 185 kts | 89° |
| 2026-04-30 22:19 | 25.80436 | -80.23849 | 1905 ft | 186 kts | 91° |
| 2026-04-30 22:19 | 25.80474 | -80.22310 | 2152 ft | 211 kts | 93° |
| 2026-04-30 22:19 | 25.80591 | -80.18724 | 2573 ft | 253 kts | 83° |
| 2026-04-30 22:20 | 25.81343 | -80.16883 | 2766 ft | 277 kts | 45° |
| 2026-04-30 22:20 | 25.84813 | -80.15778 | 4390 ft | 264 kts | 357° |
| 2026-04-30 22:20 | 25.86648 | -80.15755 | 5182 ft | 265 kts | 358° |
| 2026-04-30 22:21 | 25.88516 | -80.15719 | 5826 ft | 272 kts | 358° |
| 2026-04-30 22:21 | 25.90368 | -80.15969 | 6570 ft | 268 kts | 340° |
| 2026-04-30 22:21 | 25.92148 | -80.16631 | 7232 ft | 270 kts | 339° |
| 2026-04-30 22:21 | 25.93958 | -80.17296 | 7770 ft | 278 kts | 340° |
| 2026-04-30 22:22 | 25.95809 | -80.17953 | 8482 ft | 278 kts | 340° |
| 2026-04-30 22:22 | 25.97631 | -80.18669 | 9191 ft | 278 kts | 329° |
| 2026-04-30 22:22 | 25.99066 | -80.20074 | 9824 ft | 277 kts | 305° |
| 2026-04-30 22:22 | 26.00003 | -80.21954 | 10354 ft | 284 kts | 293° |
| 2026-04-30 22:23 | 26.00785 | -80.24061 | 10510 ft | 305 kts | 291° |
| 2026-04-30 22:23 | 26.01573 | -80.26325 | 10664 ft | 324 kts | 291° |
| 2026-04-30 22:23 | 26.02408 | -80.28735 | 10795 ft | 343 kts | 291° |
| 2026-04-30 22:23 | 26.03295 | -80.31269 | 10921 ft | 360 kts | 291° |
| 2026-04-30 22:24 | 26.04232 | -80.33912 | 11064 ft | 374 kts | 291° |
| 2026-04-30 22:24 | 26.05202 | -80.36624 | 11438 ft | 380 kts | 291° |
| 2026-04-30 22:24 | 26.06183 | -80.39357 | 11949 ft | 381 kts | 291° |
| 2026-04-30 22:24 | 26.07172 | -80.42102 | 12482 ft | 383 kts | 291° |
| 2026-04-30 22:25 | 26.08165 | -80.44860 | 12963 ft | 385 kts | 291° |
| 2026-04-30 22:25 | 26.09164 | -80.47637 | 13427 ft | 388 kts | 291° |
| 2026-04-30 22:25 | 26.10171 | -80.50436 | 13875 ft | 391 kts | 291° |
| 2026-04-30 22:25 | 26.11182 | -80.53249 | 14311 ft | 392 kts | 291° |
| 2026-04-30 22:26 | 26.13794 | -80.58497 | 15299 ft | 393 kts | 315° |
| 2026-04-30 22:26 | 26.15958 | -80.60365 | 15706 ft | 397 kts | 328° |
| 2026-04-30 22:26 | 26.18466 | -80.61700 | 16095 ft | 401 kts | 334° |
| 2026-04-30 22:27 | 26.21051 | -80.62902 | 16490 ft | 404 kts | 335° |
| 2026-04-30 22:27 | 26.23653 | -80.64092 | 16907 ft | 405 kts | 335° |
| 2026-04-30 22:27 | 26.28864 | -80.66526 | 17747 ft | 407 kts | 334° |
| 2026-04-30 22:28 | 26.34048 | -80.69004 | 18443 ft | 410 kts | 334° |
| 2026-04-30 22:28 | 26.36713 | -80.70284 | 18721 ft | 413 kts | 334° |
| 2026-04-30 22:29 | 26.43576 | -80.75864 | 19537 ft | 414 kts | 311° |
| 2026-04-30 22:29 | 26.45508 | -80.78272 | 19785 ft | 417 kts | 311° |
| 2026-04-30 22:30 | 26.53447 | -80.87910 | 20753 ft | 426 kts | 312° |
| 2026-04-30 22:31 | 26.59474 | -80.95208 | 21514 ft | 429 kts | 312° |
| 2026-04-30 22:32 | 26.65586 | -81.02628 | 22099 ft | 435 kts | 312° |
| 2026-04-30 22:32 | 26.69701 | -81.07631 | 22494 ft | 439 kts | 312° |
| 2026-04-30 22:33 | 26.75961 | -81.15252 | 23038 ft | 444 kts | 311° |
| 2026-04-30 22:33 | 26.80118 | -81.20320 | 23370 ft | 447 kts | 311° |
| 2026-04-30 22:34 | 26.86442 | -81.28043 | 23808 ft | 450 kts | 311° |
| 2026-04-30 22:35 | 26.90658 | -81.33199 | 24219 ft | 449 kts | 311° |
| 2026-04-30 22:36 | 26.99104 | -81.43548 | 24773 ft | 452 kts | 311° |
| 2026-04-30 22:36 | 27.01228 | -81.46153 | 24915 ft | 453 kts | 311° |
| 2026-04-30 22:37 | 27.08162 | -81.53368 | 25290 ft | 460 kts | 325° |
| 2026-04-30 22:37 | 27.10882 | -81.55259 | 25435 ft | 460 kts | 326° |
| 2026-04-30 22:37 | 27.16349 | -81.59042 | 25658 ft | 463 kts | 326° |
| 2026-04-30 22:38 | 27.21791 | -81.62914 | 25917 ft | 464 kts | 325° |
| 2026-04-30 22:38 | 27.27197 | -81.66822 | 26438 ft | 459 kts | 324° |
| 2026-04-30 22:39 | 27.29870 | -81.68759 | 26740 ft | 456 kts | 324° |
| 2026-04-30 22:39 | 27.37890 | -81.74576 | 27203 ft | 458 kts | 324° |
| 2026-04-30 22:40 | 27.45902 | -81.80381 | 27887 ft | 456 kts | 326° |
| 2026-04-30 22:41 | 27.54610 | -81.84832 | 28558 ft | 459 kts | 335° |
| 2026-04-30 22:41 | 27.60510 | -81.87564 | 29005 ft | 458 kts | 334° |
| 2026-04-30 22:42 | 27.71208 | -81.92735 | 29908 ft | 455 kts | 333° |
| 2026-04-30 22:43 | 27.77017 | -81.95581 | 30357 ft | 454 kts | 333° |
| 2026-04-30 22:43 | 27.82790 | -81.98410 | 30881 ft | 451 kts | 333° |
| 2026-04-30 22:44 | 27.88531 | -82.01223 | 31420 ft | 448 kts | 333° |
| 2026-04-30 22:45 | 27.99909 | -82.06812 | 31932 ft | 447 kts | 333° |
| 2026-04-30 22:45 | 28.05604 | -82.09612 | 31931 ft | 445 kts | 333° |
| 2026-04-30 22:46 | 28.11040 | -82.12829 | 31948 ft | 438 kts | 322° |
| 2026-04-30 22:47 | 28.20878 | -82.20900 | 31953 ft | 436 kts | 321° |
| 2026-04-30 22:48 | 28.30755 | -82.28865 | 31942 ft | 435 kts | 321° |
| 2026-04-30 22:49 | 28.45632 | -82.40787 | 31969 ft | 437 kts | 321° |
| 2026-04-30 22:51 | 28.60495 | -82.52745 | 31933 ft | 435 kts | 321° |
| 2026-04-30 22:52 | 28.67894 | -82.58714 | 31938 ft | 434 kts | 321° |
| 2026-04-30 22:53 | 28.77733 | -82.66667 | 31947 ft | 433 kts | 320° |
| 2026-04-30 22:53 | 28.85096 | -82.72632 | 31923 ft | 432 kts | 320° |
| 2026-04-30 22:55 | 28.97328 | -82.82566 | 31928 ft | 431 kts | 320° |
| 2026-04-30 22:56 | 29.07091 | -82.90515 | 31952 ft | 431 kts | 320° |
| 2026-04-30 22:57 | 29.19262 | -83.00451 | 31924 ft | 431 kts | 320° |
| 2026-04-30 22:58 | 29.29023 | -83.08440 | 31931 ft | 431 kts | 320° |
| 2026-04-30 22:59 | 29.43657 | -83.20453 | 31926 ft | 431 kts | 319° |